sensor_id;sensor_type;location;lat;lon;timestamp;pressure;altitude;pressure_sealevel;temperature;humidity
53246;BME280;39569;51.090;-1.786;2022-07-29T00:01:35;101115.75;;;14.21;68.39
53246;BME280;39569;51.090;-1.786;2022-07-29T00:04:02;101114.63;;;14.16;68.48
53246;BME280;39569;51.090;-1.786;2022-07-29T00:06:29;101116.94;;;14.19;68.71
53246;BME280;39569;51.090;-1.786;2022-07-29T00:08:55;101119.44;;;14.20;68.89
53246;BME280;39569;51.090;-1.786;2022-07-29T00:11:22;101128.53;;;14.19;68.51
53246;BME280;39569;51.090;-1.786;2022-07-29T00:13:49;101124.75;;;14.14;68.95
53246;BME280;39569;51.090;-1.786;2022-07-29T00:16:15;101123.53;;;14.02;69.76
53246;BME280;39569;51.090;-1.786;2022-07-29T00:18:44;101116.25;;;13.96;70.01
53246;BME280;39569;51.090;-1.786;2022-07-29T00:21:10;101121.72;;;13.88;70.04
53246;BME280;39569;51.090;-1.786;2022-07-29T00:23:37;101125.13;;;13.67;71.00
53246;BME280;39569;51.090;-1.786;2022-07-29T00:26:04;101122.81;;;13.64;71.27
53246;BME280;39569;51.090;-1.786;2022-07-29T00:28:31;101125.19;;;13.59;71.55
53246;BME280;39569;51.090;-1.786;2022-07-29T00:30:57;101122.53;;;13.59;71.77
53246;BME280;39569;51.090;-1.786;2022-07-29T00:33:24;101119.69;;;13.60;72.17
53246;BME280;39569;51.090;-1.786;2022-07-29T00:35:52;101115.97;;;13.61;71.95
53246;BME280;39569;51.090;-1.786;2022-07-29T00:38:19;101108.03;;;13.68;72.39
53246;BME280;39569;51.090;-1.786;2022-07-29T00:40:47;101112.28;;;13.62;73.04
53246;BME280;39569;51.090;-1.786;2022-07-29T00:43:14;101111.63;;;13.60;73.00
53246;BME280;39569;51.090;-1.786;2022-07-29T00:45:41;101106.81;;;13.70;72.79
53246;BME280;39569;51.090;-1.786;2022-07-29T00:48:07;101105.13;;;13.84;72.76
53246;BME280;39569;51.090;-1.786;2022-07-29T00:50:35;101111.16;;;13.86;72.48
53246;BME280;39569;51.090;-1.786;2022-07-29T00:53:06;101098.72;;;14.14;70.90
53246;BME280;39569;51.090;-1.786;2022-07-29T00:55:33;101110.31;;;14.00;71.24
53246;BME280;39569;51.090;-1.786;2022-07-29T00:58:00;101101.97;;;13.95;71.79
53246;BME280;39569;51.090;-1.786;2022-07-29T01:00:28;101108.28;;;13.88;71.67
53246;BME280;39569;51.090;-1.786;2022-07-29T01:02:55;101111.69;;;13.96;70.91
53246;BME280;39569;51.090;-1.786;2022-07-29T01:05:24;101102.97;;;13.94;71.03
53246;BME280;39569;51.090;-1.786;2022-07-29T01:07:52;101112.63;;;14.03;70.43
53246;BME280;39569;51.090;-1.786;2022-07-29T01:10:22;101102.44;;;13.99;70.37
53246;BME280;39569;51.090;-1.786;2022-07-29T01:12:52;101098.63;;;14.08;69.44
53246;BME280;39569;51.090;-1.786;2022-07-29T01:15:20;101096.81;;;13.94;70.53
53246;BME280;39569;51.090;-1.786;2022-07-29T01:17:52;101103.91;;;13.87;70.38
53246;BME280;39569;51.090;-1.786;2022-07-29T01:20:25;101106.91;;;13.77;70.53
53246;BME280;39569;51.090;-1.786;2022-07-29T01:23:08;101105.78;;;13.71;71.12
53246;BME280;39569;51.090;-1.786;2022-07-29T01:25:56;101109.09;;;13.59;70.98
53246;BME280;39569;51.090;-1.786;2022-07-29T01:28:39;101107.25;;;13.45;71.88
53246;BME280;39569;51.090;-1.786;2022-07-29T01:31:13;101109.53;;;13.33;72.22
53246;BME280;39569;51.090;-1.786;2022-07-29T01:33:45;101117.38;;;13.20;72.17
53246;BME280;39569;51.090;-1.786;2022-07-29T01:36:18;101111.72;;;13.15;72.53
53246;BME280;39569;51.090;-1.786;2022-07-29T01:38:53;101119.25;;;13.20;72.80
53246;BME280;39569;51.090;-1.786;2022-07-29T01:41:21;101124.97;;;13.17;72.54
53246;BME280;39569;51.090;-1.786;2022-07-29T01:43:54;101128.09;;;13.20;72.62
53246;BME280;39569;51.090;-1.786;2022-07-29T01:46:31;101117.28;;;13.14;72.65
53246;BME280;39569;51.090;-1.786;2022-07-29T01:49:04;101121.34;;;13.10;73.12
53246;BME280;39569;51.090;-1.786;2022-07-29T01:51:38;101117.72;;;13.03;73.34
53246;BME280;39569;51.090;-1.786;2022-07-29T01:54:10;101116.19;;;13.23;72.15
53246;BME280;39569;51.090;-1.786;2022-07-29T01:56:40;101119.25;;;13.20;72.07
53246;BME280;39569;51.090;-1.786;2022-07-29T01:59:10;101118.97;;;13.29;71.78
53246;BME280;39569;51.090;-1.786;2022-07-29T02:01:39;101119.06;;;13.21;72.12
53246;BME280;39569;51.090;-1.786;2022-07-29T02:04:07;101124.25;;;13.23;72.52
53246;BME280;39569;51.090;-1.786;2022-07-29T02:06:38;101130.59;;;13.22;72.35
53246;BME280;39569;51.090;-1.786;2022-07-29T02:09:07;101123.53;;;13.29;72.24
53246;BME280;39569;51.090;-1.786;2022-07-29T02:11:35;101126.84;;;13.31;71.28
53246;BME280;39569;51.090;-1.786;2022-07-29T02:14:04;101129.69;;;13.29;71.63
53246;BME280;39569;51.090;-1.786;2022-07-29T02:16:35;101132.75;;;13.26;72.06
53246;BME280;39569;51.090;-1.786;2022-07-29T02:19:04;101125.56;;;13.27;72.29
53246;BME280;39569;51.090;-1.786;2022-07-29T02:21:32;101124.50;;;13.13;72.69
53246;BME280;39569;51.090;-1.786;2022-07-29T02:24:01;101131.22;;;13.09;72.37
53246;BME280;39569;51.090;-1.786;2022-07-29T02:26:29;101123.56;;;13.06;72.90
53246;BME280;39569;51.090;-1.786;2022-07-29T02:28:59;101128.44;;;13.03;73.27
53246;BME280;39569;51.090;-1.786;2022-07-29T02:31:29;101125.50;;;12.90;73.74
53246;BME280;39569;51.090;-1.786;2022-07-29T02:34:00;101126.88;;;12.85;74.05
53246;BME280;39569;51.090;-1.786;2022-07-29T02:36:29;101139.28;;;12.87;73.91
53246;BME280;39569;51.090;-1.786;2022-07-29T02:38:57;101133.06;;;12.86;74.07
53246;BME280;39569;51.090;-1.786;2022-07-29T02:41:28;101125.22;;;12.84;74.26
53246;BME280;39569;51.090;-1.786;2022-07-29T02:43:57;101129.06;;;12.82;74.06
53246;BME280;39569;51.090;-1.786;2022-07-29T02:46:29;101126.91;;;12.77;74.54
53246;BME280;39569;51.090;-1.786;2022-07-29T02:49:02;101130.44;;;12.78;74.78
53246;BME280;39569;51.090;-1.786;2022-07-29T02:51:38;101126.69;;;12.87;74.58
53246;BME280;39569;51.090;-1.786;2022-07-29T02:54:07;101122.81;;;12.90;74.29
53246;BME280;39569;51.090;-1.786;2022-07-29T02:56:36;101121.28;;;12.95;74.73
53246;BME280;39569;51.090;-1.786;2022-07-29T02:59:08;101116.38;;;12.99;74.44
53246;BME280;39569;51.090;-1.786;2022-07-29T03:01:40;101123.25;;;13.01;73.97
53246;BME280;39569;51.090;-1.786;2022-07-29T03:04:11;101121.09;;;13.19;73.48
53246;BME280;39569;51.090;-1.786;2022-07-29T03:06:40;101117.94;;;13.16;73.75
53246;BME280;39569;51.090;-1.786;2022-07-29T03:09:07;101116.91;;;13.17;73.54
53246;BME280;39569;51.090;-1.786;2022-07-29T03:11:35;101114.25;;;13.31;73.01
53246;BME280;39569;51.090;-1.786;2022-07-29T03:14:04;101117.94;;;13.16;73.59
53246;BME280;39569;51.090;-1.786;2022-07-29T03:16:33;101123.00;;;13.11;74.35
53246;BME280;39569;51.090;-1.786;2022-07-29T03:19:02;101118.66;;;13.10;75.13
53246;BME280;39569;51.090;-1.786;2022-07-29T03:21:31;101122.84;;;13.12;75.06
53246;BME280;39569;51.090;-1.786;2022-07-29T03:23:57;101118.41;;;13.19;74.79
53246;BME280;39569;51.090;-1.786;2022-07-29T03:26:25;101117.75;;;13.17;nan
53246;BME280;39569;51.090;-1.786;2022-07-29T03:28:52;101109.72;;;13.17;74.84
53246;BME280;39569;51.090;-1.786;2022-07-29T03:31:18;101124.69;;;13.12;75.21
53246;BME280;39569;51.090;-1.786;2022-07-29T03:33:45;101125.06;;;13.01;75.16
53246;BME280;39569;51.090;-1.786;2022-07-29T03:36:12;101125.59;;;12.96;75.88
53246;BME280;39569;51.090;-1.786;2022-07-29T03:42:03;101111.81;;;12.84;76.13
53246;BME280;39569;51.090;-1.786;2022-07-29T03:44:32;101112.53;;;12.78;76.55
53246;BME280;39569;51.090;-1.786;2022-07-29T03:47:00;101115.91;;;12.72;77.25
53246;BME280;39569;51.090;-1.786;2022-07-29T03:49:29;101116.38;;;12.76;77.07
53246;BME280;39569;51.090;-1.786;2022-07-29T03:51:57;101118.53;;;12.80;76.86
53246;BME280;39569;51.090;-1.786;2022-07-29T03:54:24;101123.19;;;12.87;76.72
53246;BME280;39569;51.090;-1.786;2022-07-29T03:56:52;101119.00;;;12.84;77.21
53246;BME280;39569;51.090;-1.786;2022-07-29T03:59:22;101126.69;;;12.87;77.43
53246;BME280;39569;51.090;-1.786;2022-07-29T04:01:50;101126.16;;;12.92;76.94
53246;BME280;39569;51.090;-1.786;2022-07-29T04:04:17;101121.94;;;12.97;77.08
53246;BME280;39569;51.090;-1.786;2022-07-29T04:06:45;101121.94;;;12.97;77.13
53246;BME280;39569;51.090;-1.786;2022-07-29T04:09:12;101123.56;;;12.98;77.57
53246;BME280;39569;51.090;-1.786;2022-07-29T04:11:40;101123.09;;;13.03;77.75
53246;BME280;39569;51.090;-1.786;2022-07-29T04:14:07;101122.41;;;13.01;77.40
53246;BME280;39569;51.090;-1.786;2022-07-29T04:16:36;101123.94;;;13.03;77.96
53246;BME280;39569;51.090;-1.786;2022-07-29T04:19:03;101135.88;;;13.15;77.49
53246;BME280;39569;51.090;-1.786;2022-07-29T04:21:29;101141.34;;;13.22;77.81
53246;BME280;39569;51.090;-1.786;2022-07-29T04:23:56;101130.34;;;13.31;77.07
53246;BME280;39569;51.090;-1.786;2022-07-29T04:26:23;101131.31;;;13.38;76.68
53246;BME280;39569;51.090;-1.786;2022-07-29T04:28:50;101131.41;;;13.45;76.79
53246;BME280;39569;51.090;-1.786;2022-07-29T04:31:16;101131.13;;;13.40;76.79
53246;BME280;39569;51.090;-1.786;2022-07-29T04:33:44;101130.94;;;13.41;76.40
53246;BME280;39569;51.090;-1.786;2022-07-29T04:36:11;101129.25;;;13.40;76.91
53246;BME280;39569;51.090;-1.786;2022-07-29T04:38:38;101126.03;;;13.30;77.03
53246;BME280;39569;51.090;-1.786;2022-07-29T04:41:05;101119.63;;;13.31;76.55
53246;BME280;39569;51.090;-1.786;2022-07-29T04:43:33;101125.81;;;13.32;76.76
53246;BME280;39569;51.090;-1.786;2022-07-29T04:46:00;101122.31;;;13.31;76.78
53246;BME280;39569;51.090;-1.786;2022-07-29T04:48:27;101121.59;;;13.37;76.53
53246;BME280;39569;51.090;-1.786;2022-07-29T04:50:55;101121.41;;;13.39;76.59
53246;BME280;39569;51.090;-1.786;2022-07-29T04:53:22;101120.66;;;13.30;77.16
53246;BME280;39569;51.090;-1.786;2022-07-29T04:55:49;101127.13;;;13.36;77.19
53246;BME280;39569;51.090;-1.786;2022-07-29T04:58:16;101116.16;;;13.45;76.71
53246;BME280;39569;51.090;-1.786;2022-07-29T05:00:43;101129.91;;;13.42;76.83
53246;BME280;39569;51.090;-1.786;2022-07-29T05:03:10;101121.59;;;13.37;77.65
53246;BME280;39569;51.090;-1.786;2022-07-29T05:05:36;101123.16;;;13.46;77.50
53246;BME280;39569;51.090;-1.786;2022-07-29T05:08:05;101122.44;;;13.38;78.35
53246;BME280;39569;51.090;-1.786;2022-07-29T05:10:32;101122.44;;;13.52;78.73
53246;BME280;39569;51.090;-1.786;2022-07-29T05:13:01;101135.47;;;13.55;78.50
53246;BME280;39569;51.090;-1.786;2022-07-29T05:15:27;101145.03;;;13.72;78.03
53246;BME280;39569;51.090;-1.786;2022-07-29T05:17:54;101147.53;;;13.89;76.69
53246;BME280;39569;51.090;-1.786;2022-07-29T05:20:21;101149.94;;;13.83;77.14
53246;BME280;39569;51.090;-1.786;2022-07-29T05:22:51;101146.13;;;13.93;76.57
53246;BME280;39569;51.090;-1.786;2022-07-29T05:25:19;101144.88;;;14.03;75.93
53246;BME280;39569;51.090;-1.786;2022-07-29T05:27:46;101143.63;;;14.06;75.83
53246;BME280;39569;51.090;-1.786;2022-07-29T05:30:13;101145.19;;;14.15;75.43
53246;BME280;39569;51.090;-1.786;2022-07-29T05:32:40;101155.59;;;14.32;75.28
53246;BME280;39569;51.090;-1.786;2022-07-29T05:35:07;101148.44;;;14.39;75.19
53246;BME280;39569;51.090;-1.786;2022-07-29T05:37:34;101156.31;;;14.41;74.85
53246;BME280;39569;51.090;-1.786;2022-07-29T05:40:01;101152.22;;;14.45;74.95
53246;BME280;39569;51.090;-1.786;2022-07-29T05:42:29;101151.97;;;14.40;75.54
53246;BME280;39569;51.090;-1.786;2022-07-29T05:44:56;101151.34;;;14.59;nan
53246;BME280;39569;51.090;-1.786;2022-07-29T05:47:23;101151.88;;;14.69;74.69
53246;BME280;39569;51.090;-1.786;2022-07-29T05:49:50;101155.47;;;14.76;74.61
53246;BME280;39569;51.090;-1.786;2022-07-29T05:52:17;101153.00;;;14.96;74.17
53246;BME280;39569;51.090;-1.786;2022-07-29T05:54:43;101158.81;;;14.99;74.27
53246;BME280;39569;51.090;-1.786;2022-07-29T05:57:15;101152.97;;;15.17;73.01
53246;BME280;39569;51.090;-1.786;2022-07-29T05:59:43;101150.59;;;15.28;74.05
53246;BME280;39569;51.090;-1.786;2022-07-29T06:02:10;101155.72;;;15.44;72.88
53246;BME280;39569;51.090;-1.786;2022-07-29T06:04:37;101155.31;;;15.75;71.87
53246;BME280;39569;51.090;-1.786;2022-07-29T06:07:03;101152.28;;;15.85;71.19
53246;BME280;39569;51.090;-1.786;2022-07-29T06:09:30;101156.94;;;16.04;70.41
53246;BME280;39569;51.090;-1.786;2022-07-29T06:11:57;101155.94;;;16.11;70.26
53246;BME280;39569;51.090;-1.786;2022-07-29T06:14:24;101153.94;;;16.20;70.20
53246;BME280;39569;51.090;-1.786;2022-07-29T06:16:52;101156.03;;;16.31;70.20
53246;BME280;39569;51.090;-1.786;2022-07-29T06:19:19;101156.56;;;16.54;69.34
53246;BME280;39569;51.090;-1.786;2022-07-29T06:21:46;101163.47;;;16.69;69.03
53246;BME280;39569;51.090;-1.786;2022-07-29T06:24:14;101168.31;;;16.94;68.95
53246;BME280;39569;51.090;-1.786;2022-07-29T06:26:42;101161.25;;;17.78;65.62
53246;BME280;39569;51.090;-1.786;2022-07-29T06:29:09;101161.97;;;20.04;58.05
53246;BME280;39569;51.090;-1.786;2022-07-29T06:31:37;101161.53;;;21.67;52.38
53246;BME280;39569;51.090;-1.786;2022-07-29T06:34:05;101158.47;;;23.06;48.53
53246;BME280;39569;51.090;-1.786;2022-07-29T06:36:34;101165.97;;;22.31;50.70
53246;BME280;39569;51.090;-1.786;2022-07-29T06:39:04;101166.75;;;21.04;53.50
53246;BME280;39569;51.090;-1.786;2022-07-29T06:41:30;101173.56;;;20.77;55.10
53246;BME280;39569;51.090;-1.786;2022-07-29T06:43:57;101173.22;;;19.83;57.28
53246;BME280;39569;51.090;-1.786;2022-07-29T06:46:24;101183.84;;;19.85;57.47
53246;BME280;39569;51.090;-1.786;2022-07-29T06:48:52;101181.06;;;19.73;58.51
53246;BME280;39569;51.090;-1.786;2022-07-29T06:51:20;101178.38;;;19.17;59.89
53246;BME280;39569;51.090;-1.786;2022-07-29T06:53:47;101176.28;;;18.82;61.48
53246;BME280;39569;51.090;-1.786;2022-07-29T06:56:14;101181.75;;;18.75;61.67
53246;BME280;39569;51.090;-1.786;2022-07-29T06:58:41;101184.31;;;19.32;59.60
53246;BME280;39569;51.090;-1.786;2022-07-29T07:01:07;101184.03;;;20.08;57.52
53246;BME280;39569;51.090;-1.786;2022-07-29T07:03:34;101181.78;;;20.41;56.22
53246;BME280;39569;51.090;-1.786;2022-07-29T07:06:01;101194.72;;;19.35;59.93
53246;BME280;39569;51.090;-1.786;2022-07-29T07:08:30;101193.16;;;19.46;59.32
53246;BME280;39569;51.090;-1.786;2022-07-29T07:10:56;101183.44;;;20.90;55.53
53246;BME280;39569;51.090;-1.786;2022-07-29T07:13:23;101177.09;;;22.41;50.52
53246;BME280;39569;51.090;-1.786;2022-07-29T07:15:50;101184.47;;;22.06;51.76
53246;BME280;39569;51.090;-1.786;2022-07-29T07:18:18;101173.25;;;22.93;49.39
53246;BME280;39569;51.090;-1.786;2022-07-29T07:20:45;101168.59;;;23.72;47.52
53246;BME280;39569;51.090;-1.786;2022-07-29T07:23:12;101173.75;;;24.45;45.80
53246;BME280;39569;51.090;-1.786;2022-07-29T07:25:41;101184.94;;;24.70;45.16
53246;BME280;39569;51.090;-1.786;2022-07-29T07:28:08;101175.41;;;24.94;44.63
53246;BME280;39569;51.090;-1.786;2022-07-29T07:30:35;101191.22;;;23.89;46.78
53246;BME280;39569;51.090;-1.786;2022-07-29T07:33:03;101182.75;;;23.35;47.92
53246;BME280;39569;51.090;-1.786;2022-07-29T07:35:30;101192.81;;;23.85;46.24
53246;BME280;39569;51.090;-1.786;2022-07-29T07:37:57;101184.47;;;23.91;47.10
53246;BME280;39569;51.090;-1.786;2022-07-29T07:40:24;101182.72;;;24.02;45.41
53246;BME280;39569;51.090;-1.786;2022-07-29T07:42:52;101183.16;;;24.32;44.27
53246;BME280;39569;51.090;-1.786;2022-07-29T07:45:19;101187.34;;;25.09;42.20
53246;BME280;39569;51.090;-1.786;2022-07-29T07:47:46;101193.25;;;25.91;41.20
53246;BME280;39569;51.090;-1.786;2022-07-29T07:50:13;101188.38;;;26.03;40.11
53246;BME280;39569;51.090;-1.786;2022-07-29T07:52:47;101187.31;;;26.56;39.53
53246;BME280;39569;51.090;-1.786;2022-07-29T07:55:15;101183.75;;;26.61;38.56
53246;BME280;39569;51.090;-1.786;2022-07-29T07:57:42;101184.94;;;25.18;40.87
53246;BME280;39569;51.090;-1.786;2022-07-29T08:00:11;101182.19;;;26.18;38.86
53246;BME280;39569;51.090;-1.786;2022-07-29T08:02:38;101176.91;;;26.58;38.29
53246;BME280;39569;51.090;-1.786;2022-07-29T08:05:06;101174.34;;;27.49;35.85
53246;BME280;39569;51.090;-1.786;2022-07-29T08:07:33;101172.34;;;26.84;36.00
53246;BME280;39569;51.090;-1.786;2022-07-29T08:10:00;101180.28;;;26.18;37.10
53246;BME280;39569;51.090;-1.786;2022-07-29T08:12:26;101175.72;;;27.31;34.09
53246;BME280;39569;51.090;-1.786;2022-07-29T08:14:53;101181.75;;;27.68;33.96
53246;BME280;39569;51.090;-1.786;2022-07-29T08:17:21;101175.16;;;27.19;34.04
53246;BME280;39569;51.090;-1.786;2022-07-29T08:19:48;101174.56;;;27.07;34.60
53246;BME280;39569;51.090;-1.786;2022-07-29T08:22:15;101169.69;;;27.34;33.43
53246;BME280;39569;51.090;-1.786;2022-07-29T08:24:42;101172.66;;;28.72;31.29
53246;BME280;39569;51.090;-1.786;2022-07-29T08:27:18;101174.00;;;28.16;31.80
53246;BME280;39569;51.090;-1.786;2022-07-29T08:29:44;101174.03;;;28.05;32.05
53246;BME280;39569;51.090;-1.786;2022-07-29T08:32:11;101175.91;;;28.15;30.29
53246;BME280;39569;51.090;-1.786;2022-07-29T08:34:39;101176.25;;;27.53;31.39
53246;BME280;39569;51.090;-1.786;2022-07-29T08:37:06;101165.13;;;28.92;29.62
53246;BME280;39569;51.090;-1.786;2022-07-29T08:39:33;101168.38;;;28.99;29.82
53246;BME280;39569;51.090;-1.786;2022-07-29T08:42:00;101177.22;;;28.38;31.21
53246;BME280;39569;51.090;-1.786;2022-07-29T08:44:27;101171.88;;;29.15;29.35
53246;BME280;39569;51.090;-1.786;2022-07-29T08:46:53;101179.94;;;30.26;27.52
53246;BME280;39569;51.090;-1.786;2022-07-29T08:49:20;101173.28;;;30.32;27.72
53246;BME280;39569;51.090;-1.786;2022-07-29T08:51:49;101165.22;;;30.36;27.81
53246;BME280;39569;51.090;-1.786;2022-07-29T08:54:17;101167.06;;;28.33;29.65
53246;BME280;39569;51.090;-1.786;2022-07-29T08:56:45;101159.28;;;29.71;27.64
53246;BME280;39569;51.090;-1.786;2022-07-29T08:59:14;101168.78;;;29.55;27.33
53246;BME280;39569;51.090;-1.786;2022-07-29T09:01:43;101167.41;;;28.75;28.05
53246;BME280;39569;51.090;-1.786;2022-07-29T09:04:11;101173.81;;;29.15;27.55
53246;BME280;39569;51.090;-1.786;2022-07-29T09:06:43;101161.59;;;29.26;26.49
53246;BME280;39569;51.090;-1.786;2022-07-29T09:09:12;101151.38;;;30.17;24.49
53246;BME280;39569;51.090;-1.786;2022-07-29T09:11:40;101160.50;;;31.34;23.82
53246;BME280;39569;51.090;-1.786;2022-07-29T09:14:07;101168.63;;;29.75;26.48
53246;BME280;39569;51.090;-1.786;2022-07-29T09:16:52;101162.34;;;30.64;24.28
53246;BME280;39569;51.090;-1.786;2022-07-29T09:19:26;101160.00;;;31.78;23.05
53246;BME280;39569;51.090;-1.786;2022-07-29T09:21:55;101159.03;;;32.01;22.02
53246;BME280;39569;51.090;-1.786;2022-07-29T09:24:35;101162.56;;;30.68;23.34
53246;BME280;39569;51.090;-1.786;2022-07-29T09:27:08;101158.41;;;31.91;23.09
53246;BME280;39569;51.090;-1.786;2022-07-29T09:29:36;101160.03;;;30.95;23.44
53246;BME280;39569;51.090;-1.786;2022-07-29T09:32:06;101159.22;;;30.52;24.11
53246;BME280;39569;51.090;-1.786;2022-07-29T09:34:34;101164.31;;;29.93;24.79
53246;BME280;39569;51.090;-1.786;2022-07-29T09:37:02;101169.19;;;30.25;24.43
53246;BME280;39569;51.090;-1.786;2022-07-29T09:39:31;101168.06;;;31.29;24.33
53246;BME280;39569;51.090;-1.786;2022-07-29T09:42:00;101168.25;;;31.51;23.80
53246;BME280;39569;51.090;-1.786;2022-07-29T09:44:41;101169.75;;;30.69;24.06
53246;BME280;39569;51.090;-1.786;2022-07-29T09:47:08;101154.94;;;32.53;21.88
53246;BME280;39569;51.090;-1.786;2022-07-29T09:49:49;101157.16;;;31.83;21.53
53246;BME280;39569;51.090;-1.786;2022-07-29T09:52:16;101158.63;;;32.35;21.59
53246;BME280;39569;51.090;-1.786;2022-07-29T09:54:45;101158.22;;;32.55;21.53
53246;BME280;39569;51.090;-1.786;2022-07-29T09:57:22;101154.94;;;32.66;21.89
53246;BME280;39569;51.090;-1.786;2022-07-29T09:59:56;101132.75;;;33.38;20.56
53246;BME280;39569;51.090;-1.786;2022-07-29T10:02:27;101145.00;;;32.52;21.37
53246;BME280;39569;51.090;-1.786;2022-07-29T10:04:55;101141.44;;;31.97;22.39
53246;BME280;39569;51.090;-1.786;2022-07-29T10:07:22;101148.13;;;31.77;22.32
53246;BME280;39569;51.090;-1.786;2022-07-29T10:09:57;101146.81;;;31.75;22.44
53246;BME280;39569;51.090;-1.786;2022-07-29T10:12:24;101143.47;;;32.59;21.00
53246;BME280;39569;51.090;-1.786;2022-07-29T10:14:51;101142.63;;;32.59;20.52
53246;BME280;39569;51.090;-1.786;2022-07-29T10:17:18;101140.47;;;34.02;20.22
53246;BME280;39569;51.090;-1.786;2022-07-29T10:19:46;101141.94;;;32.53;21.95
53246;BME280;39569;51.090;-1.786;2022-07-29T10:22:14;101143.50;;;31.92;21.87
53246;BME280;39569;51.090;-1.786;2022-07-29T10:24:41;101138.59;;;32.16;21.36
53246;BME280;39569;51.090;-1.786;2022-07-29T10:27:09;101140.09;;;31.95;22.43
53246;BME280;39569;51.090;-1.786;2022-07-29T10:29:35;101143.88;;;32.89;20.55
53246;BME280;39569;51.090;-1.786;2022-07-29T10:32:27;101139.53;;;32.74;20.29
53246;BME280;39569;51.090;-1.786;2022-07-29T10:35:08;101143.16;;;33.94;19.17
53246;BME280;39569;51.090;-1.786;2022-07-29T10:40:32;101142.41;;;32.42;20.82
53246;BME280;39569;51.090;-1.786;2022-07-29T10:43:26;101148.53;;;32.79;21.17
53246;BME280;39569;51.090;-1.786;2022-07-29T10:45:56;101146.88;;;32.56;20.76
53246;BME280;39569;51.090;-1.786;2022-07-29T10:48:23;101149.00;;;32.46;20.31
53246;BME280;39569;51.090;-1.786;2022-07-29T10:50:55;101141.16;;;33.33;20.58
53246;BME280;39569;51.090;-1.786;2022-07-29T10:53:24;101142.56;;;33.22;21.48
53246;BME280;39569;51.090;-1.786;2022-07-29T10:55:52;101153.13;;;31.62;21.81
53246;BME280;39569;51.090;-1.786;2022-07-29T10:58:20;101148.69;;;32.47;20.96
53246;BME280;39569;51.090;-1.786;2022-07-29T11:00:50;101153.88;;;32.76;20.48
53246;BME280;39569;51.090;-1.786;2022-07-29T11:03:42;101151.59;;;32.42;20.68
53246;BME280;39569;51.090;-1.786;2022-07-29T11:06:09;101146.13;;;33.44;19.40
53246;BME280;39569;51.090;-1.786;2022-07-29T11:08:36;101143.34;;;33.14;20.00
53246;BME280;39569;51.090;-1.786;2022-07-29T11:11:36;101141.75;;;33.21;19.91
53246;BME280;39569;51.090;-1.786;2022-07-29T11:14:08;101139.59;;;34.41;19.07
53246;BME280;39569;51.090;-1.786;2022-07-29T11:17:01;101138.00;;;34.48;18.24
53246;BME280;39569;51.090;-1.786;2022-07-29T11:19:29;101137.00;;;33.44;19.52
53246;BME280;39569;51.090;-1.786;2022-07-29T11:21:56;101130.38;;;34.06;19.43
53246;BME280;39569;51.090;-1.786;2022-07-29T11:24:25;101136.16;;;34.44;18.66
53246;BME280;39569;51.090;-1.786;2022-07-29T11:27:10;101148.53;;;33.15;19.17
53246;BME280;39569;51.090;-1.786;2022-07-29T11:29:40;101146.72;;;33.86;19.06
53246;BME280;39569;51.090;-1.786;2022-07-29T11:32:14;101143.19;;;33.63;19.25
53246;BME280;39569;51.090;-1.786;2022-07-29T11:34:43;101136.44;;;33.55;19.35
53246;BME280;39569;51.090;-1.786;2022-07-29T11:37:17;101136.72;;;33.76;18.92
53246;BME280;39569;51.090;-1.786;2022-07-29T11:39:46;101145.31;;;33.00;19.97
53246;BME280;39569;51.090;-1.786;2022-07-29T11:42:44;101136.09;;;33.48;19.78
53246;BME280;39569;51.090;-1.786;2022-07-29T11:45:16;101131.47;;;33.44;19.42
53246;BME280;39569;51.090;-1.786;2022-07-29T11:47:50;101128.75;;;33.83;19.41
53246;BME280;39569;51.090;-1.786;2022-07-29T11:50:29;101135.22;;;32.68;20.67
53246;BME280;39569;51.090;-1.786;2022-07-29T11:52:56;101122.91;;;33.54;18.79
53246;BME280;39569;51.090;-1.786;2022-07-29T11:55:24;101122.97;;;33.62;18.92
53246;BME280;39569;51.090;-1.786;2022-07-29T11:57:53;101124.78;;;33.98;19.60
53246;BME280;39569;51.090;-1.786;2022-07-29T12:00:25;101120.75;;;34.12;19.02
53246;BME280;39569;51.090;-1.786;2022-07-29T12:02:55;101114.91;;;34.14;18.71
53246;BME280;39569;51.090;-1.786;2022-07-29T12:05:30;101099.97;;;34.57;18.90
53246;BME280;39569;51.090;-1.786;2022-07-29T12:08:04;101102.81;;;33.79;18.52
53246;BME280;39569;51.090;-1.786;2022-07-29T12:10:32;101117.84;;;32.40;20.40
53246;BME280;39569;51.090;-1.786;2022-07-29T12:12:59;101105.22;;;32.75;20.19
53246;BME280;39569;51.090;-1.786;2022-07-29T12:15:25;101112.69;;;32.74;20.49
53246;BME280;39569;51.090;-1.786;2022-07-29T12:17:54;101106.41;;;33.05;20.24
53246;BME280;39569;51.090;-1.786;2022-07-29T12:20:24;101107.56;;;33.48;19.42
53246;BME280;39569;51.090;-1.786;2022-07-29T12:22:52;101098.41;;;33.78;20.33
53246;BME280;39569;51.090;-1.786;2022-07-29T12:25:20;101093.06;;;34.29;18.88
53246;BME280;39569;51.090;-1.786;2022-07-29T12:27:58;101086.25;;;34.69;18.44
53246;BME280;39569;51.090;-1.786;2022-07-29T12:30:38;101086.16;;;32.96;20.19
53246;BME280;39569;51.090;-1.786;2022-07-29T12:33:20;101094.94;;;32.13;21.09
53246;BME280;39569;51.090;-1.786;2022-07-29T12:35:49;101082.66;;;32.68;20.02
53246;BME280;39569;51.090;-1.786;2022-07-29T12:38:17;101086.63;;;34.03;21.11
53246;BME280;39569;51.090;-1.786;2022-07-29T12:40:45;101084.97;;;34.67;18.55
53246;BME280;39569;51.090;-1.786;2022-07-29T12:43:14;101088.06;;;34.48;18.86
53246;BME280;39569;51.090;-1.786;2022-07-29T12:45:43;101089.28;;;34.08;18.80
53246;BME280;39569;51.090;-1.786;2022-07-29T12:48:10;101090.47;;;32.88;20.48
53246;BME280;39569;51.090;-1.786;2022-07-29T12:50:54;101091.69;;;33.70;19.96
53246;BME280;39569;51.090;-1.786;2022-07-29T12:53:23;101085.28;;;33.09;20.19
53246;BME280;39569;51.090;-1.786;2022-07-29T12:55:51;101091.69;;;32.96;19.64
53246;BME280;39569;51.090;-1.786;2022-07-29T12:58:29;101084.63;;;33.56;19.08